地図

経路データ

SID SEASON NUMBER BASIN SUBBASIN NAME ISO_TIME NATURE LAT LON WMO_WIND WMO_PRES WMO_AGENCY TRACK_TYPE DIST2LAND LANDFALL IFLAG USA_AGENCY USA_ATCF_ID USA_LAT USA_LON USA_RECORD USA_STATUS USA_WIND USA_PRES USA_SSHS USA_R34_NE USA_R34_SE USA_R34_SW USA_R34_NW USA_R50_NE USA_R50_SE USA_R50_SW USA_R50_NW USA_R64_NE USA_R64_SE USA_R64_SW USA_R64_NW USA_POCI USA_ROCI USA_RMW USA_EYE TOKYO_LAT TOKYO_LON TOKYO_GRADE TOKYO_WIND TOKYO_PRES TOKYO_R50_DIR TOKYO_R50_LONG TOKYO_R50_SHORT TOKYO_R30_DIR TOKYO_R30_LONG TOKYO_R30_SHORT TOKYO_LAND CMA_LAT CMA_LON CMA_CAT CMA_WIND CMA_PRES HKO_LAT HKO_LON HKO_CAT HKO_WIND HKO_PRES NEWDELHI_LAT NEWDELHI_LON NEWDELHI_GRADE NEWDELHI_WIND NEWDELHI_PRES NEWDELHI_CI NEWDELHI_DP NEWDELHI_POCI REUNION_LAT REUNION_LON REUNION_TYPE REUNION_WIND REUNION_PRES REUNION_TNUM REUNION_CI REUNION_RMW REUNION_R34_NE REUNION_R34_SE REUNION_R34_SW REUNION_R34_NW REUNION_R50_NE REUNION_R50_SE REUNION_R50_SW REUNION_R50_NW REUNION_R64_NE REUNION_R64_SE REUNION_R64_SW REUNION_R64_NW BOM_LAT BOM_LON BOM_TYPE BOM_WIND BOM_PRES BOM_TNUM BOM_CI BOM_RMW BOM_R34_NE BOM_R34_SE BOM_R34_SW BOM_R34_NW BOM_R50_NE BOM_R50_SE BOM_R50_SW BOM_R50_NW BOM_R64_NE BOM_R64_SE BOM_R64_SW BOM_R64_NW BOM_ROCI BOM_POCI BOM_EYE BOM_POS_METHOD BOM_PRES_METHOD NADI_LAT NADI_LON NADI_CAT NADI_WIND NADI_PRES WELLINGTON_LAT WELLINGTON_LON WELLINGTON_WIND WELLINGTON_PRES DS824_LAT DS824_LON DS824_STAGE DS824_WIND DS824_PRES TD9636_LAT TD9636_LON TD9636_STAGE TD9636_WIND TD9636_PRES TD9635_LAT TD9635_LON TD9635_WIND TD9635_PRES TD9635_ROCI NEUMANN_LAT NEUMANN_LON NEUMANN_CLASS NEUMANN_WIND NEUMANN_PRES MLC_LAT MLC_LON MLC_CLASS MLC_WIND MLC_PRES USA_GUST BOM_GUST BOM_GUST_PER REUNION_GUST REUNION_GUST_PER USA_SEAHGT USA_SEARAD_NE USA_SEARAD_SE USA_SEARAD_SW USA_SEARAD_NW STORM_SPEED STORM_DIR
1994169N06152 1994 36 WP MM SHARON 1994-06-18 00:00:00 NR 6.00000 152.000 main 982 978 O_____________ jtwc_wp WP061994 6.00000 152.000 15 -1 14 278
1994169N06152 1994 36 WP MM SHARON 1994-06-18 03:00:00 NR 6.10018 151.300 main 987 986 P_____________ WP061994 6.10018 151.300 15 -1 14 278
1994169N06152 1994 36 WP MM SHARON 1994-06-18 06:00:00 NR 6.20000 150.600 main 995 980 O_____________ jtwc_wp WP061994 6.20000 150.600 15 -1 14 278
1994169N06152 1994 36 WP MM SHARON 1994-06-18 09:00:00 NR 6.29991 149.900 main 981 969 P_____________ WP061994 6.29991 149.900 17 -1 14 278
1994169N06152 1994 36 WP MM SHARON 1994-06-18 12:00:00 NR 6.40000 149.200 main 973 967 O_____________ jtwc_wp WP061994 6.40000 149.200 20 -1 14 278
1994169N06152 1994 36 WP MM SHARON 1994-06-18 15:00:00 NR 6.49987 148.507 main 971 967 P_____________ WP061994 6.49987 148.507 20 -1 14 278
1994169N06152 1994 36 WP MM SHARON 1994-06-18 18:00:00 NR 6.60000 147.800 main 975 974 O_____________ jtwc_wp WP061994 6.60000 147.800 20 -1 15 278
1994169N06152 1994 36 WP MM SHARON 1994-06-18 21:00:00 NR 6.69992 147.057 main 986 986 P_____________ WP061994 6.69992 147.057 20 -1 15 278
1994169N06152 1994 36 WP MM SHARON 1994-06-19 00:00:00 NR 6.80000 146.300 main 997 997 O_____________ jtwc_wp WP061994 6.80000 146.300 20 -1 15 277
1994169N06152 1994 36 WP MM SHARON 1994-06-19 03:00:00 NR 6.89238 145.550 main 1015 1015 P_____________ WP061994 6.89238 145.550 20 -1 15 278
1994169N06152 1994 36 WP MM SHARON 1994-06-19 06:00:00 NR 7.00000 144.800 main 1039 1039 O_____________ jtwc_wp WP061994 7.00000 144.800 20 -1 15 279
1994169N06152 1994 36 WP MM SHARON 1994-06-19 09:00:00 NR 7.13488 144.050 main 1070 1070 P_____________ WP061994 7.13488 144.050 20 -1 15 281
1994169N06152 1994 36 WP MM SHARON 1994-06-19 12:00:00 NR 7.30000 143.300 main 1115 1115 O_____________ jtwc_wp WP061994 7.30000 143.300 20 -1 15 283
1994169N06152 1994 36 WP MM SHARON 1994-06-19 15:00:00 NR 7.48487 142.550 main 1124 1113 P_____________ WP061994 7.48487 142.550 20 -1 15 285
1994169N06152 1994 36 WP MM SHARON 1994-06-19 18:00:00 NR 7.70000 141.800 main 1116 1108 O_____________ jtwc_wp WP061994 7.70000 141.800 20 -1 16 287
1994169N06152 1994 36 WP MM SHARON 1994-06-19 21:00:00 NR 7.93491 141.042 main 1109 1109 P_____________ WP061994 7.93491 141.042 20 -1 16 289
1994169N06152 1994 36 WP MM SHARON 1994-06-20 00:00:00 NR 8.20000 140.300 main 1120 1112 O_____________ jtwc_wp WP061994 8.20000 140.300 20 -1 15 291
1994169N06152 1994 36 WP MM SHARON 1994-06-20 03:00:00 NR 8.48484 139.592 main 1120 1115 P_____________ WP061994 8.48484 139.592 20 -1 15 293
1994169N06152 1994 36 WP MM SHARON 1994-06-20 06:00:00 NR 8.80000 138.900 main 1125 1122 O_____________ jtwc_wp WP061994 8.80000 138.900 20 -1 15 296
1994169N06152 1994 36 WP MM SHARON 1994-06-20 09:00:00 NR 9.14237 138.200 main 1135 1135 P_____________ WP061994 9.14237 138.200 20 -1 16 297
1994169N06152 1994 36 WP MM SHARON 1994-06-20 12:00:00 NR 9.50000 137.500 main 1162 1146 O_____________ jtwc_wp WP061994 9.50000 137.500 20 -1 16 297
1994169N06152 1994 36 WP MM SHARON 1994-06-20 15:00:00 NR 9.85735 136.800 main 1148 1081 P_____________ WP061994 9.85735 136.800 20 -1 16 297
1994169N06152 1994 36 WP MM SHARON 1994-06-20 18:00:00 NR 10.2000 136.100 main 1081 1016 O_____________ jtwc_wp WP061994 10.2000 136.100 20 -1 15 296
1994169N06152 1994 36 WP MM SHARON 1994-06-20 21:00:00 NR 10.5148 135.400 main 1016 969 P_____________ WP061994 10.5148 135.400 20 -1 14 298
1994169N06152 1994 36 WP MM SHARON 1994-06-21 00:00:00 TS 10.8400 134.860 1006 tokyo main 969 909 OO____________ jtwc_wp WP061994 10.8000 134.700 20 -1 11.0000 135.500 2 1006 0 0 0 12 296
1994169N06152 1994 36 WP MM SHARON 1994-06-21 03:00:00 TS 11.0558 134.267 main 912 840 PP____________ WP061994 11.0573 134.000 22 -1 11.0526 134.800 2 1005 0 0 13 287
1994169N06152 1994 36 WP MM SHARON 1994-06-21 06:00:00 TS 11.2143 133.600 1004 tokyo main 840 770 OO____________ jtwc_wp WP061994 11.3000 133.300 25 -1 11.1000 134.000 2 1004 0 0 0 14 282
1994169N06152 1994 36 WP MM SHARON 1994-06-21 09:00:00 TS 11.3499 132.822 main 760 678 PP____________ WP061994 11.5573 132.607 25 -1 11.1425 133.037 2 1004 0 0 16 280
1994169N06152 1994 36 WP MM SHARON 1994-06-21 12:00:00 TS 11.5000 131.950 1004 tokyo main 678 582 OO____________ jtwc_wp WP061994 11.8000 131.900 25 -1 11.2000 132.000 2 1004 0 0 0 17 280
1994169N06152 1994 36 WP MM SHARON 1994-06-21 15:00:00 TS 11.6460 131.079 main 582 488 PP____________ WP061994 12.0074 131.157 25 -1 11.2847 131.000 2 1004 0 0 17 280
1994169N06152 1994 36 WP MM SHARON 1994-06-21 18:00:00 TS 11.8000 130.200 1004 tokyo main 488 405 OO____________ jtwc_wp WP061994 12.2000 130.400 25 -1 11.4000 130.000 2 1004 0 0 0 17 280
1994169N06152 1994 36 WP MM SHARON 1994-06-21 21:00:00 TS 11.9447 129.332 main 394 319 PP____________ WP061994 12.3997 129.665 22 -1 11.4897 128.999 2 1004 0 0 18 282
1994169N06152 1994 36 WP MM SHARON 1994-06-22 00:00:00 TS 12.1500 128.450 1004 tokyo main 323 229 OO____________ jtwc_wp WP061994 12.6000 128.900 20 -1 11.7000 128.000 2 1004 0 0 0 18 286
1994169N06152 1994 36 WP MM SHARON 1994-06-22 03:00:00 TS 12.4585 127.532 main 219 142 PP____________ WP061994 12.7922 128.080 20 -1 12.1248 126.985 2 1004 0 0 20 292
1994169N06152 1994 36 WP MM SHARON 1994-06-22 06:00:00 TS 12.9222 126.533 1004 tokyo main 133 99 OOO___________ jtwc_wp WP061994 13.0000 127.200 20 -1 12.7000 126.000 2 1004 0 0 0 13.5000 126.000 1 23 1004 22 295
1994169N06152 1994 36 WP MM SHARON 1994-06-22 09:00:00 TS 13.3681 125.496 main 105 10 PPP___________ WP061994 13.2347 126.272 20 -1 13.3870 125.085 2 1004 0 0 13.5968 124.765 1 23 1004 22 292
1994169N06152 1994 36 WP MM SHARON 1994-06-22 12:00:00 TS 13.7364 124.464 1004 tokyo main 10 0 OOO___________ jtwc_wp WP061994 13.5000 125.300 20 -1 14.0000 124.200 2 1004 0 0 0 13.7000 123.700 1 23 1004 20 287
1994169N06152 1994 36 WP MM SHARON 1994-06-22 15:00:00 TS 13.9712 123.499 main 11 0 PPP___________ WP061994 13.7772 124.307 20 -1 14.3098 123.284 2 1004 0 0 13.8265 122.905 1 23 1004 18 285
1994169N06152 1994 36 WP MM SHARON 1994-06-22 18:00:00 TS 14.2000 122.633 1004 tokyo main 0 0 OOO___________ jtwc_wp WP061994 14.1000 123.300 20 -1 14.5000 122.400 2 1004 0 0 0 14.0000 122.200 1 23 1004 18 286
1994169N06152 1994 36 WP MM SHARON 1994-06-22 21:00:00 TS 14.4699 121.722 main 10 0 PPP___________ WP061994 14.4847 122.292 22 -1 14.7271 121.585 2 1004 0 0 14.1980 121.290 1 23 1004 18 289
1994169N06152 1994 36 WP MM SHARON 1994-06-23 00:00:00 TS 14.8000 120.867 1004 tokyo main 0 0 OOO___________ jtwc_wp WP061994 14.9000 121.300 25 -1 15.0000 120.800 2 1004 0 0 0 14.5000 120.500 1 23 1004 17 296
1994169N06152 1994 36 WP MM SHARON 1994-06-23 03:00:00 TS 15.2178 120.151 main 0 0 PPP___________ WP061994 15.3071 120.335 27 -1 15.3698 119.992 2 1003 0 0 14.9766 120.127 1 26 1002 16 303
1994169N06152 1994 36 WP MM SHARON 1994-06-23 06:00:00 TS 15.6846 119.477 1002 tokyo main 39 39 OOOO__________ jtwc_wp WP061994 15.7000 119.400 30 -1 15.8000 119.200 2 1002 0 0 0 15.5000 119.800 1 29 1000 15.9000 119.600 TD 30 1000 16 302
1994169N06152 1994 36 WP MM SHARON 1994-06-23 09:00:00 TS 16.0974 118.715 main 107 107 PPPP__________ WP061994 16.0423 118.470 32 -1 16.2493 118.472 2 1002 0 0 15.9227 119.153 1 33 997 16.2529 118.816 TD 30 999 17 298
1994169N06152 1994 36 WP MM SHARON 1994-06-23 12:00:00 TS 16.4933 117.920 1002 tokyo main 200 200 OOOO__________ jtwc_wp WP061994 16.4000 117.600 35 0 16.7000 117.700 2 1002 0 0 0 16.3000 118.400 2 38 995 16.6000 118.000 TD 30 998 17 297
1994169N06152 1994 36 WP MM SHARON 1994-06-23 15:00:00 TS 16.8834 117.120 main 295 295 PPPP__________ WP061994 16.8347 116.805 40 0 17.1151 116.765 2 1001 0 0 16.6414 117.766 2 38 995 16.9424 117.142 TD 32 997 17 297
1994169N06152 1994 36 WP MM SHARON 1994-06-23 18:00:00 TS 17.2750 116.300 35 1000 tokyo main 389 389 OOOO__________ jtwc_wp WP061994 17.3000 116.100 45 0 17.5000 115.800 3 35 1000 0 3 90 60 0 17.0000 117.000 2 38 995 17.3000 116.300 TS 35 996 18 296
1994169N06152 1994 36 WP MM SHARON 1994-06-23 21:00:00 TS 17.6783 115.429 main 493 423 PPPP__________ WP061994 17.7497 115.462 45 0 17.8347 114.912 3 35 999 0 3 120 75 17.4290 115.836 2 38 995 17.6998 115.505 TS 37 995 18 297
1994169N06152 1994 36 WP MM SHARON 1994-06-24 00:00:00 TS 18.1000 114.625 35 998 tokyo main 414 338 OOOO__________ jtwc_wp WP061994 18.2000 114.900 45 0 18.2000 114.100 3 35 998 0 3 150 90 0 17.9000 114.700 2 38 995 18.1000 114.800 TS 40 994 16 302
1994169N06152 1994 36 WP MM SHARON 1994-06-24 03:00:00 TS 18.5421 113.979 main 338 270 PPPP__________ WP061994 18.6498 114.370 45 0 18.6774 113.325 3 37 997 0 3 150 90 18.4065 113.995 2 38 995 18.4345 114.227 TS 40 994 14 309
1994169N06152 1994 36 WP MM SHARON 1994-06-24 06:00:00 TS 19.0000 113.450 40 996 tokyo main 270 210 OOOO__________ jtwc_wp WP061994 19.1000 113.900 45 0 19.2000 112.700 3 40 996 0 3 150 90 0 18.9000 113.500 2 38 995 18.8000 113.700 TS 40 994 13 314
1994169N06152 1994 36 WP MM SHARON 1994-06-24 09:00:00 TS 19.4736 112.955 main 209 168 PPPP__________ WP061994 19.5498 113.477 42 0 19.7221 112.267 3 40 996 0 3 135 90 19.3448 113.005 2 38 992 19.2777 113.070 TS 40 994 13 317
1994169N06152 1994 36 WP MM SHARON 1994-06-24 12:00:00 TS 19.9250 112.550 40 996 tokyo main 170 142 OOOO__________ jtwc_wp WP061994 20.0000 113.100 40 0 20.2000 112.000 3 40 996 0 3 120 90 0 19.7000 112.600 2 38 990 19.8000 112.500 TS 40 994 11 320
1994169N06152 1994 36 WP MM SHARON 1994-06-24 15:00:00 TS 20.2980 112.214 main 142 98 PPPP__________ WP061994 20.4574 112.735 40 0 20.5649 111.805 3 37 996 0 3 100 85 19.8549 112.247 2 38 990 20.3148 112.067 TS 37 995 9 324
1994169N06152 1994 36 WP MM SHARON 1994-06-24 18:00:00 TS 20.6750 111.975 35 996 tokyo main 98 49 OOOO__________ jtwc_wp WP061994 20.9000 112.400 40 0 20.9000 111.700 3 35 996 0 9 80 80 0 20.1000 112.000 2 38 990 20.8000 111.800 TS 35 996 9 336
1994169N06152 1994 36 WP MM SHARON 1994-06-24 21:00:00 TS 21.1124 111.822 main 49 0 PPPP__________ WP061994 21.2999 112.085 35 0 21.2850 111.642 3 35 997 0 9 60 60 20.6800 111.870 2 38 991 21.1849 111.690 TS 30 997 10 346
1994169N06152 1994 36 WP MM SHARON 1994-06-25 00:00:00 TS 21.6267 111.727 35 998 tokyo main 0 0 OOOO__________ jtwc_wp WP061994 21.7000 111.800 30 -1 21.7000 111.600 3 35 998 0 9 40 40 0 21.5000 111.800 2 38 992 21.6000 111.700 TD 25 998 11 349
1994169N06152 1994 36 WP MM SHARON 1994-06-25 03:00:00 TS 22.2101 111.600 main 0 0 PPPP__________ WP061994 22.1350 111.535 27 -1 22.1800 111.523 3 999 0 9 22.3428 111.671 2 28 995 22.1551 111.745 TD 25 998 13 348
1994169N06152 1994 36 WP MM SHARON 1994-06-25 06:00:00 TS 22.8636 111.455 1000 tokyo main 0 0 OOOO__________ jtwc_wp WP061994 22.6000 111.300 25 -1 22.6000 111.400 2 1000 0 0 0 23.5000 111.600 0 19 998 22.8000 111.800 TD 25 998 14 347
1994169N06152 1994 36 WP MM SHARON 1994-06-25 09:00:00 TS 23.5306 111.261 main 0 0 PPP___________ WP061994 23.0775 111.085 22 -1 22.8526 111.218 2 1000 0 0 25.1149 111.658 0 19 998 TD 13 346
1994169N06152 1994 36 WP MM SHARON 1994-06-25 12:00:00 TS 24.1600 111.100 1000 tokyo main 0 0 OOO___________ jtwc_wp WP061994 23.6000 110.900 20 -1 23.0000 111.000 2 1000 0 0 0 27.0000 111.800 0 19 998 8 324
1994169N06152 1994 36 WP MM SHARON 1994-06-25 15:00:00 NR 24.1825 110.743 main 0 0 P_____________ WP061994 24.1825 110.743 17 -1 2 0 0 0 8 324
1994169N06152 1994 36 WP MM SHARON 1994-06-25 18:00:00 NR 24.8000 110.600 main 0 O_____________ jtwc_wp WP061994 24.8000 110.600 15 -1 13 348

デジタル台風データ・検索

IBTrACS Databaseについて

本データベースは、米国NOAAが公開する1842年以降の世界の熱帯低気圧のベストトラックデータアーカイブInternational Best Track Archive for Climate Stewardship (IBTrACS)を、ウェブで閲覧しやすい形式に変換したものです。

最終更新日:2021-10-25